Time;durP1;ratioP1;P1;durP2;ratioP2;P2;SDS_P1;SDS_P2;PMS_P1;PMS_P2;Temp;Humidity;BMP_temperature;BMP_pressure;BME280_temperature;BME280_humidity;BME280_pressure;Samples;Min_cycle;Max_cycle;Signal;HPM_P1;HPM_P2
2022/06/26 00:01:00;;;;;;;11.73;8.10;;;18.40;99.90;;;;;;10491160;28;20028;-85
2022/06/26 00:06:00;;;;;;;12.25;7.75;;;18.30;99.90;;;;;;10481483;28;20454;-84
2022/06/26 00:11:01;;;;;;;11.57;7.93;;;18.20;99.90;;;;;;10481565;28;20423;-84
2022/06/26 00:16:02;;;;;;;12.05;7.80;;;18.10;99.90;;;;;;10479820;28;20170;-85
2022/06/26 00:21:05;;;;;;;16.33;8.93;;;17.90;99.90;;;;;;10483535;28;20024;-86
2022/06/26 00:26:05;;;;;;;12.40;7.78;;;17.90;99.90;;;;;;10477791;28;20060;-83
2022/06/26 00:31:06;;;;;;;14.07;7.55;;;18.00;99.90;;;;;;10481831;28;20112;-85
2022/06/26 00:36:07;;;;;;;12.80;7.07;;;18.10;99.90;;;;;;10488896;28;20119;-83
2022/06/26 00:41:07;;;;;;;9.88;7.35;;;18.00;99.90;;;;;;10472070;28;20029;-85
2022/06/26 00:46:08;;;;;;;10.45;7.25;;;17.90;99.90;;;;;;10480477;28;20028;-84
2022/06/26 00:51:09;;;;;;;13.13;8.15;;;17.70;99.90;;;;;;10485012;28;20049;-84
2022/06/26 00:56:10;;;;;;;15.93;9.10;;;17.70;99.90;;;;;;10474621;28;20496;-84
2022/06/26 01:01:10;;;;;;;12.98;7.60;;;17.70;99.90;;;;;;10484431;28;20059;-84
2022/06/26 01:06:11;;;;;;;13.98;5.97;;;17.80;99.90;;;;;;10484076;28;20547;-83
2022/06/26 01:11:17;;;;;;;10.77;6.65;;;18.00;99.90;;;;;;10479817;28;20037;-85
2022/06/26 01:16:20;;;;;;;15.27;7.03;;;18.30;98.30;;;;;;10484178;28;20032;-84
2022/06/26 01:21:23;;;;;;;14.93;6.78;;;18.60;97.20;;;;;;10485729;28;20029;-84
2022/06/26 01:26:24;;;;;;;13.63;6.35;;;18.60;96.50;;;;;;10471303;28;20016;-85
2022/06/26 01:31:25;;;;;;;11.05;6.45;;;18.60;96.30;;;;;;10480834;28;20039;-85
2022/06/26 01:36:25;;;;;;;8.50;5.72;;;18.40;96.70;;;;;;10473784;28;20043;-83
2022/06/26 01:41:27;;;;;;;9.95;5.97;;;18.20;97.50;;;;;;10480841;28;20028;-86
2022/06/26 01:46:27;;;;;;;10.98;6.70;;;18.00;98.40;;;;;;10470830;28;20100;-84
2022/06/26 01:51:28;;;;;;;12.98;5.75;;;17.60;99.20;;;;;;10478961;28;20032;-86
2022/06/26 01:56:28;;;;;;;9.95;6.05;;;17.50;99.50;;;;;;10480240;28;20435;-83
2022/06/26 02:01:30;;;;;;;10.55;6.18;;;17.40;99.70;;;;;;10482857;28;20062;-85
2022/06/26 02:06:32;;;;;;;11.52;6.65;;;17.30;99.90;;;;;;10482121;28;20032;-84
2022/06/26 02:16:52;;;;;;;9.60;6.15;;;17.30;99.90;;;;;;10479818;28;20072;-83
2022/06/26 02:21:52;;;;;;;10.15;7.45;;;17.30;99.90;;;;;;10474964;28;20108;-85
2022/06/26 02:26:53;;;;;;;11.48;6.50;;;17.20;99.90;;;;;;10475887;28;20070;-85
2022/06/26 02:31:53;;;;;;;11.45;6.75;;;17.20;99.90;;;;;;10475362;28;20460;-83
2022/06/26 02:36:54;;;;;;;11.18;6.70;;;17.40;99.90;;;;;;10479104;28;20048;-83
2022/06/26 02:41:56;;;;;;;12.70;6.72;;;17.60;99.60;;;;;;10473008;28;20025;-83
2022/06/26 02:46:56;;;;;;;13.75;7.18;;;17.60;99.10;;;;;;10482211;28;20020;-85
2022/06/26 02:51:57;;;;;;;12.02;6.95;;;17.70;99.10;;;;;;10480288;28;20032;-84
2022/06/26 02:56:58;;;;;;;15.05;7.40;;;17.60;98.70;;;;;;10479845;28;20056;-85
2022/06/26 03:01:59;;;;;;;11.55;6.97;;;17.40;99.10;;;;;;10468005;28;20083;-84
2022/06/26 03:07:00;;;;;;;13.32;8.23;;;17.20;99.90;;;;;;10466799;28;20109;-85
2022/06/26 03:12:00;;;;;;;12.25;7.53;;;17.10;99.90;;;;;;10478368;28;20090;-85
2022/06/26 03:17:01;;;;;;;11.32;6.53;;;17.10;99.90;;;;;;10477254;28;20127;-85
2022/06/26 03:22:02;;;;;;;10.80;6.15;;;17.20;99.60;;;;;;10482200;28;20028;-84
2022/06/26 03:27:03;;;;;;;10.68;6.97;;;17.20;99.10;;;;;;10481305;28;20028;-85
2022/06/26 03:32:04;;;;;;;12.10;7.32;;;17.20;99.00;;;;;;10477811;28;20070;-85
2022/06/26 03:37:05;;;;;;;9.98;6.70;;;17.30;98.90;;;;;;10471568;28;20095;-85
2022/06/26 03:42:06;;;;;;;12.90;6.53;;;17.40;98.30;;;;;;10471006;28;20029;-84
2022/06/26 03:47:06;;;;;;;11.20;6.53;;;17.50;98.30;;;;;;10475536;28;20442;-84
2022/06/26 03:52:07;;;;;;;13.85;6.75;;;17.50;99.30;;;;;;10480454;28;20032;-84
2022/06/26 03:57:08;;;;;;;11.68;7.10;;;17.40;99.30;;;;;;10482300;28;20095;-84
2022/06/26 04:02:09;;;;;;;12.68;6.82;;;17.40;99.90;;;;;;10473876;28;20475;-85
2022/06/26 04:07:12;;;;;;;9.90;6.05;;;17.30;99.90;;;;;;10478537;28;20033;-85
2022/06/26 04:12:13;;;;;;;11.43;6.25;;;17.40;99.90;;;;;;10485289;28;20440;-86
2022/06/26 04:17:14;;;;;;;11.65;6.47;;;17.40;99.90;;;;;;10488456;28;20099;-84
2022/06/26 04:22:15;;;;;;;11.55;7.30;;;17.40;99.90;;;;;;10489255;28;20039;-83
2022/06/26 04:27:16;;;;;;;11.73;6.38;;;17.50;99.90;;;;;;10471192;28;20029;-83
2022/06/26 04:32:16;;;;;;;9.50;6.93;;;17.70;99.90;;;;;;10477952;28;20028;-85
2022/06/26 04:37:18;;;;;;;8.40;5.60;;;17.90;99.90;;;;;;10482013;28;20037;-85
2022/06/26 04:42:18;;;;;;;7.63;5.30;;;18.10;99.90;;;;;;10486429;28;20025;-84
2022/06/26 04:47:19;;;;;;;7.68;5.93;;;18.30;99.90;;;;;;10490448;28;20028;-85
2022/06/26 04:52:19;;;;;;;9.10;5.35;;;18.40;99.90;;;;;;10474394;28;20827;-84
2022/06/26 04:57:20;;;;;;;11.57;6.03;;;18.50;99.90;;;;;;10478146;28;20057;-84
2022/06/26 05:02:21;;;;;;;11.65;6.20;;;18.60;99.90;;;;;;10471759;28;20112;-85
2022/06/26 05:07:21;;;;;;;9.43;5.80;;;18.80;99.90;;;;;;10479353;28;20055;-86
2022/06/26 05:12:22;;;;;;;9.82;6.28;;;19.00;99.90;;;;;;10485789;28;20017;-86
2022/06/26 05:17:22;;;;;;;8.18;5.60;;;19.20;99.90;;;;;;10449101;28;20392;-84
2022/06/26 05:22:23;;;;;;;12.63;5.55;;;19.40;99.90;;;;;;10454485;28;20021;-83
2022/06/26 05:27:24;;;;;;;7.22;5.53;;;19.60;99.90;;;;;;10464854;28;20028;-85
2022/06/26 05:32:25;;;;;;;9.90;5.15;;;20.00;99.80;;;;;;10488267;28;20025;-85
2022/06/26 05:37:25;;;;;;;9.50;5.28;;;20.20;98.70;;;;;;10472084;28;20064;-85
2022/06/26 05:42:26;;;;;;;9.93;5.75;;;20.40;97.30;;;;;;10478011;28;20115;-84
2022/06/26 05:47:27;;;;;;;9.48;6.05;;;20.70;95.30;;;;;;10475373;28;20024;-85
2022/06/26 05:52:27;;;;;;;7.68;5.07;;;20.90;93.00;;;;;;10480408;28;20025;-85
2022/06/26 05:57:28;;;;;;;8.85;5.05;;;21.10;93.30;;;;;;10483273;28;20059;-86
2022/06/26 06:02:28;;;;;;;11.35;5.80;;;21.40;91.60;;;;;;10482228;28;20028;-85
2022/06/26 06:07:29;;;;;;;7.57;5.25;;;21.60;91.80;;;;;;10474842;28;20028;-85
2022/06/26 06:12:30;;;;;;;11.43;6.30;;;21.90;91.20;;;;;;10486509;28;20087;-84
2022/06/26 06:17:36;;;;;;;12.10;5.60;;;22.00;90.90;;;;;;10470562;28;20042;-86
2022/06/26 06:22:38;;;;;;;9.57;5.90;;;22.30;91.00;;;;;;10472576;28;20021;-84
2022/06/26 06:27:39;;;;;;;10.23;6.07;;;22.50;90.60;;;;;;10460012;28;20033;-84
2022/06/26 06:32:40;;;;;;;12.57;5.75;;;22.70;86.40;;;;;;10469164;28;20104;-84
2022/06/26 06:37:43;;;;;;;9.20;4.93;;;23.00;85.60;;;;;;10475066;28;20040;-85
2022/06/26 06:42:43;;;;;;;9.05;5.20;;;23.20;84.20;;;;;;10476594;28;20024;-86
2022/06/26 06:47:44;;;;;;;7.68;5.10;;;23.50;85.90;;;;;;10467361;28;20040;-86
2022/06/26 06:52:44;;;;;;;12.02;5.07;;;23.70;83.10;;;;;;10481017;28;20170;-86
2022/06/26 06:57:45;;;;;;;9.00;5.05;;;24.30;81.20;;;;;;10470110;28;20106;-85
2022/06/26 07:02:45;;;;;;;9.63;5.35;;;25.70;77.80;;;;;;10473647;28;20025;-86
2022/06/26 07:07:46;;;;;;;14.00;7.95;;;27.10;73.60;;;;;;10473365;28;20589;-85
2022/06/26 07:12:59;;;;;;;19.95;8.95;;;28.00;69.10;;;;;;10477151;28;20353;-86
2022/06/26 07:18:00;;;;;;;16.55;8.40;;;28.90;67.70;;;;;;10480632;28;20040;-85
2022/06/26 07:23:01;;;;;;;14.85;8.63;;;29.70;69.30;;;;;;10479436;28;20032;-82
2022/06/26 07:28:01;;;;;;;19.63;9.00;;;30.30;66.60;;;;;;10471620;28;20116;-83
2022/06/26 07:34:12;;;;;;;17.88;8.15;;;30.70;64.40;;;;;;10480736;28;20503;-82
2022/06/26 07:38:27;;;;;;;18.95;8.55;;;30.90;65.90;;;;;;10493208;28;20463;-83
2022/06/26 07:43:27;;;;;;;16.85;7.90;;;31.30;64.10;;;;;;10479331;28;20167;-84
2022/06/26 07:48:28;;;;;;;16.42;7.72;;;31.40;60.30;;;;;;10480435;28;20028;-82
2022/06/26 07:53:29;;;;;;;15.48;7.80;;;30.90;59.80;;;;;;10484838;28;20083;-82
2022/06/26 07:58:29;;;;;;;14.15;7.05;;;30.50;59.90;;;;;;10489000;28;20044;-83
2022/06/26 08:03:30;;;;;;;14.05;6.43;;;30.20;63.10;;;;;;10493407;28;20033;-84
2022/06/26 08:08:31;;;;;;;6.78;4.32;;;30.20;60.80;;;;;;10475267;28;20050;-81
2022/06/26 08:13:31;;;;;;;5.82;3.30;;;29.90;59.60;;;;;;10479342;28;20016;-84
2022/06/26 08:18:32;;;;;;;4.88;3.30;;;30.00;60.90;;;;;;10484871;28;20319;-83
2022/06/26 08:23:33;;;;;;;4.60;3.10;;;30.20;61.20;;;;;;10487334;28;20021;-84
2022/06/26 08:28:33;;;;;;;4.65;2.95;;;30.60;58.70;;;;;;10482670;28;20024;-82
2022/06/26 08:33:34;;;;;;;3.55;2.88;;;30.80;59.80;;;;;;10489254;28;20020;-83
2022/06/26 08:38:34;;;;;;;6.15;3.08;;;30.90;57.20;;;;;;10481508;28;20073;-82
2022/06/26 08:43:38;;;;;;;5.40;2.63;;;31.10;57.60;;;;;;10476625;28;20040;-82
2022/06/26 08:48:44;;;;;;;4.97;2.60;;;31.30;57.60;;;;;;10480362;28;20027;-82
2022/06/26 08:53:45;;;;;;;4.15;2.90;;;31.40;55.60;;;;;;10485897;28;20137;-81
2022/06/26 08:58:46;;;;;;;8.02;3.10;;;31.60;55.20;;;;;;10489928;28;20037;-81
2022/06/26 09:03:47;;;;;;;5.95;3.53;;;31.50;54.90;;;;;;10477347;28;20036;-82
2022/06/26 09:08:51;;;;;;;3.88;2.80;;;31.70;57.40;;;;;;10478299;28;20033;-82
2022/06/26 09:13:53;;;;;;;4.68;3.15;;;31.90;57.90;;;;;;10480057;28;20384;-84
2022/06/26 09:18:54;;;;;;;3.72;2.90;;;32.10;52.20;;;;;;10486031;28;20704;-82
2022/06/26 09:23:54;;;;;;;5.25;3.10;;;31.80;56.10;;;;;;10488364;28;20054;-82
2022/06/26 09:28:55;;;;;;;4.93;3.00;;;31.80;54.00;;;;;;10481609;28;20013;-82
2022/06/26 09:33:56;;;;;;;6.18;3.75;;;31.90;52.80;;;;;;10489849;28;20038;-82
2022/06/26 09:38:56;;;;;;;4.80;3.33;;;31.20;53.70;;;;;;10472850;28;20029;-83
2022/06/26 09:43:57;;;;;;;3.78;3.05;;;31.60;53.10;;;;;;10476363;28;20028;-84
2022/06/26 09:49:00;;;;;;;6.53;2.90;;;31.70;55.50;;;;;;10480451;28;20055;-83
2022/06/26 09:54:02;;;;;;;4.28;3.22;;;32.00;53.30;;;;;;10485876;28;20052;-83
2022/06/26 09:59:03;;;;;;;5.85;3.65;;;31.60;53.70;;;;;;10483496;28;20037;-83
2022/06/26 10:09:25;;;;;;;5.07;4.00;;;32.00;55.10;;;;;;10469655;28;20454;-85
2022/06/26 10:14:31;;;;;;;5.55;3.33;;;31.90;51.50;;;;;;10478206;28;20422;-84
2022/06/26 10:19:56;;;;;;;8.27;3.95;;;31.70;55.00;;;;;;10485409;28;20023;-85
2022/06/26 10:24:58;;;;;;;8.20;3.75;;;32.00;53.60;;;;;;10470758;28;20462;-84
2022/06/26 10:30:18;;;;;;;6.63;3.92;;;32.10;54.10;;;;;;10484322;28;20013;-84
2022/06/26 10:35:35;;;;;;;8.18;3.25;;;32.50;53.90;;;;;;10471092;28;20025;-86
2022/06/26 10:46:01;;;;;;;6.40;3.80;;;32.90;53.00;;;;;;10479560;28;20408;-85
2022/06/26 10:51:02;;;;;;;10.93;3.63;;;32.90;52.00;;;;;;10483291;28;20115;-87
2022/06/26 10:56:05;;;;;;;7.40;3.70;;;32.80;52.40;;;;;;10480657;28;20037;-84
2022/06/26 11:01:08;;;;;;;11.37;3.53;;;32.80;51.80;;;;;;10470942;28;20025;-85
2022/06/26 11:06:17;;;;;;;6.00;3.20;;;32.70;52.50;;;;;;10470217;28;20057;-84
2022/06/26 11:11:20;;;;;;;5.47;3.90;;;32.20;56.50;;;;;;10458427;28;20067;-85
2022/06/26 11:16:33;;;;;;;4.03;3.10;;;32.70;51.30;;;;;;10464698;28;20083;-83
2022/06/26 11:21:34;;;;;;;3.70;3.10;;;32.70;51.10;;;;;;10470531;28;20036;-83
2022/06/26 11:26:34;;;;;;;5.82;3.30;;;32.20;52.70;;;;;;10466448;28;20429;-83
2022/06/26 11:31:35;;;;;;;5.07;3.08;;;32.10;52.80;;;;;;10468038;28;20124;-85
2022/06/26 11:36:36;;;;;;;3.78;2.97;;;32.00;55.70;;;;;;10462740;28;20044;-83
2022/06/26 11:41:36;;;;;;;3.65;3.08;;;32.30;54.00;;;;;;10462862;28;20028;-82
2022/06/26 11:46:37;;;;;;;8.07;3.30;;;32.60;52.80;;;;;;10478446;28;20028;-84
2022/06/26 11:51:37;;;;;;;4.20;3.10;;;32.00;52.70;;;;;;10474638;28;20082;-82
2022/06/26 11:56:38;;;;;;;6.22;3.35;;;31.60;52.10;;;;;;10464488;28;20125;-84
2022/06/26 12:01:39;;;;;;;4.95;3.22;;;31.70;52.70;;;;;;10460167;28;20040;-82
2022/06/26 12:06:41;;;;;;;5.50;3.30;;;31.70;54.70;;;;;;10468400;28;20029;-81
2022/06/26 12:11:43;;;;;;;4.45;3.10;;;32.10;51.70;;;;;;10467979;28;20078;-82
2022/06/26 12:16:49;;;;;;;5.13;3.28;;;32.10;54.70;;;;;;10470062;28;20041;-83
2022/06/26 12:21:52;;;;;;;4.25;3.08;;;32.60;52.80;;;;;;10468405;28;20033;-81
2022/06/26 12:26:56;;;;;;;3.60;2.95;;;32.20;50.90;;;;;;10469505;28;20072;-80
2022/06/26 12:31:56;;;;;;;;;;;32.20;57.00;;;;;;10455838;28;20029;-81
2022/06/26 12:36:57;;;;;;;5.50;3.75;;;32.60;53.50;;;;;;10476036;28;19930;-82
2022/06/26 12:41:57;;;;;;;4.85;3.40;;;32.50;51.70;;;;;;10476248;28;20443;-81
2022/06/26 12:46:58;;;;;;;7.10;3.28;;;32.50;52.90;;;;;;10474001;28;20029;-83
2022/06/26 12:51:59;;;;;;;4.53;2.63;;;32.80;53.60;;;;;;10470906;28;20033;-83
2022/06/26 12:56:59;;;;;;;3.60;2.70;;;32.50;55.00;;;;;;10475183;28;20174;-82
2022/06/26 13:02:00;;;;;;;7.57;3.85;;;32.70;51.80;;;;;;10471153;28;20028;-84
2022/06/26 13:07:00;;;;;;;5.85;3.67;;;32.50;52.70;;;;;;10464315;28;20032;-84
2022/06/26 13:12:01;;;;;;;4.07;3.33;;;32.90;53.00;;;;;;10476910;28;20032;-82
2022/06/26 13:17:02;;;;;;;5.63;3.17;;;32.80;52.30;;;;;;10466222;28;20419;-81
2022/06/26 13:22:04;;;;;;;6.22;2.80;;;32.90;51.30;;;;;;10467279;28;20098;-82
2022/06/26 13:27:05;;;;;;;3.90;3.13;;;32.10;52.50;;;;;;10470770;28;20427;-82
2022/06/26 13:32:06;;;;;;;5.65;3.05;;;32.10;55.80;;;;;;10465401;28;20035;-82
2022/06/26 13:37:06;;;;;;;5.88;2.85;;;32.10;51.60;;;;;;10478724;28;20040;-84
2022/06/26 13:42:07;;;;;;;7.00;3.03;;;31.60;52.10;;;;;;10477266;28;20021;-84
2022/06/26 13:47:10;;;;;;;4.03;2.80;;;31.40;54.10;;;;;;10474538;28;20032;-82
2022/06/26 13:52:12;;;;;;;9.02;3.08;;;31.50;53.60;;;;;;10463451;28;20033;-82
2022/06/26 13:57:13;;;;;;;3.03;2.60;;;31.50;54.90;;;;;;10471335;28;20060;-83
2022/06/26 14:02:14;;;;;;;6.63;3.30;;;31.30;54.10;;;;;;10470657;28;20516;-85
2022/06/26 14:07:42;;;;;;;5.45;3.20;;;31.20;53.50;;;;;;10474646;28;20047;-84
2022/06/26 14:12:43;;;;;;;5.25;2.80;;;30.80;53.40;;;;;;10469242;28;20048;-82
2022/06/26 14:17:44;;;;;;;5.05;2.60;;;30.80;55.00;;;;;;10469800;28;20144;-83
2022/06/26 14:28:03;;;;;;;5.72;2.42;;;30.70;53.80;;;;;;10450088;28;20032;-82
2022/06/26 14:33:07;;;;;;;6.15;2.80;;;30.30;55.30;;;;;;10465812;28;20032;-83
2022/06/26 14:38:08;;;;;;;3.05;2.60;;;30.10;54.40;;;;;;10472947;28;20036;-81
2022/06/26 14:43:09;;;;;;;5.20;2.83;;;30.10;55.50;;;;;;10474731;28;20361;-81
2022/06/26 14:48:09;;;;;;;4.53;2.88;;;30.10;55.70;;;;;;10456049;28;20111;-82
2022/06/26 14:53:10;;;;;;;6.18;2.83;;;30.00;54.60;;;;;;10462964;28;20476;-83
2022/06/26 14:58:13;;;;;;;4.40;2.80;;;29.90;55.10;;;;;;10468918;28;20159;-82
2022/06/26 15:03:14;;;;;;;6.05;2.85;;;29.90;54.80;;;;;;10461985;28;20439;-82
2022/06/26 15:08:15;;;;;;;5.50;2.78;;;29.90;55.90;;;;;;10462785;28;20032;-85
2022/06/26 15:13:16;;;;;;;3.53;2.72;;;29.90;56.20;;;;;;10467359;28;20112;-84
2022/06/26 15:18:16;;;;;;;3.67;2.65;;;29.90;55.00;;;;;;10461731;28;20472;-86
2022/06/26 15:23:17;;;;;;;3.63;2.72;;;29.80;55.20;;;;;;10480426;28;20357;-84
2022/06/26 15:28:18;;;;;;;5.68;3.08;;;29.80;55.60;;;;;;10460270;28;20031;-85
2022/06/26 15:33:18;;;;;;;2.65;2.42;;;29.70;56.70;;;;;;10468772;28;20063;-84
2022/06/26 15:38:19;;;;;;;2.97;2.70;;;29.60;56.10;;;;;;10474339;28;20055;-87
2022/06/26 15:43:20;;;;;;;4.43;3.13;;;29.50;55.30;;;;;;10475016;28;20049;-86
2022/06/26 15:48:20;;;;;;;5.03;2.33;;;29.40;55.50;;;;;;10456306;28;20112;-85
2022/06/26 15:53:21;;;;;;;5.63;2.75;;;29.30;56.50;;;;;;10471868;28;20056;-85
2022/06/26 15:58:22;;;;;;;5.15;3.05;;;29.30;56.60;;;;;;10472634;28;20057;-85
2022/06/26 16:03:22;;;;;;;2.65;2.40;;;29.30;56.20;;;;;;10478773;28;20056;-84
2022/06/26 16:08:23;;;;;;;5.88;3.25;;;29.30;56.10;;;;;;10480280;28;20460;-83
2022/06/26 16:13:23;;;;;;;3.75;2.55;;;29.30;56.90;;;;;;10477074;28;20480;-85
2022/06/26 16:18:24;;;;;;;4.03;2.75;;;29.30;56.70;;;;;;10447049;28;20044;-83
2022/06/26 16:28:47;;;;;;;5.35;2.70;;;29.10;56.90;;;;;;10462827;28;20045;-85
2022/06/26 16:33:48;;;;;;;4.18;2.80;;;29.10;57.30;;;;;;10460648;28;20348;-85
2022/06/26 16:38:50;;;;;;;3.97;2.35;;;29.00;56.40;;;;;;10482412;28;20028;-84
2022/06/26 16:43:51;;;;;;;6.63;2.90;;;28.90;57.10;;;;;;10467232;28;20020;-87
2022/06/26 16:48:51;;;;;;;3.28;2.60;;;28.80;57.00;;;;;;10468706;28;20029;-85
2022/06/26 16:53:53;;;;;;;5.25;2.45;;;28.70;58.40;;;;;;10454433;28;20465;-85
2022/06/26 16:58:54;;;;;;;4.63;2.90;;;28.60;57.80;;;;;;10468958;28;20043;-86
2022/06/26 17:03:54;;;;;;;9.02;3.10;;;28.60;58.00;;;;;;10471954;28;20108;-85
2022/06/26 17:08:55;;;;;;;3.97;2.85;;;28.40;58.00;;;;;;10481285;28;20028;-86
2022/06/26 17:14:04;;;;;;;5.57;2.88;;;28.30;58.30;;;;;;10477483;28;20036;-86
2022/06/26 17:19:05;;;;;;;4.45;2.50;;;28.10;59.00;;;;;;10438317;28;20044;-85
2022/06/26 17:24:06;;;;;;;3.40;2.88;;;28.00;60.00;;;;;;10466350;28;20033;-85
2022/06/26 17:29:33;;;;;;;4.82;2.78;;;27.80;58.90;;;;;;10466722;28;20025;-85
2022/06/26 17:34:34;;;;;;;4.35;2.60;;;27.70;60.10;;;;;;10453785;28;20040;-85
2022/06/26 17:39:35;;;;;;;5.22;2.92;;;27.60;59.60;;;;;;10461815;28;20048;-85
2022/06/26 17:44:36;;;;;;;4.10;2.67;;;27.40;61.50;;;;;;10463344;28;20032;-84
2022/06/26 17:49:37;;;;;;;3.90;2.80;;;27.20;60.70;;;;;;10469315;28;20100;-84
2022/06/26 17:54:39;;;;;;;3.58;2.35;;;27.00;63.20;;;;;;10477929;28;20445;-83
2022/06/26 17:59:40;;;;;;;2.88;2.53;;;26.80;64.30;;;;;;10457864;28;20041;-83
2022/06/26 18:04:41;;;;;;;6.65;2.75;;;26.60;65.40;;;;;;10464248;28;20039;-85
2022/06/26 18:09:42;;;;;;;3.03;2.45;;;26.30;64.10;;;;;;10474203;28;20040;-84
2022/06/26 18:14:43;;;;;;;4.28;2.67;;;26.00;64.80;;;;;;10462089;28;20061;-84
2022/06/26 18:19:44;;;;;;;3.30;2.97;;;25.80;66.80;;;;;;10459888;28;20126;-82
2022/06/26 18:24:45;;;;;;;6.18;2.72;;;25.60;66.80;;;;;;10469030;28;20501;-84
2022/06/26 18:29:46;;;;;;;3.35;2.72;;;25.40;67.30;;;;;;10466462;28;20032;-83
2022/06/26 18:34:47;;;;;;;7.65;2.92;;;25.20;69.10;;;;;;10463207;28;20047;-84
2022/06/26 18:39:48;;;;;;;5.68;3.05;;;24.90;69.50;;;;;;10451288;28;20122;-84
2022/06/26 18:44:48;;;;;;;5.35;3.08;;;24.60;71.00;;;;;;10449951;28;20029;-83
2022/06/26 18:49:49;;;;;;;6.93;3.00;;;24.30;70.80;;;;;;10453520;28;20024;-83
2022/06/26 18:54:50;;;;;;;3.83;2.90;;;24.10;72.60;;;;;;10476041;28;20056;-83
2022/06/26 18:59:51;;;;;;;4.05;3.08;;;23.80;72.90;;;;;;10467788;28;20076;-84
2022/06/26 19:04:54;;;;;;;5.38;3.38;;;23.50;74.30;;;;;;10460455;28;20722;-83
2022/06/26 19:09:54;;;;;;;6.63;3.58;;;23.30;75.00;;;;;;10462960;28;20095;-84
2022/06/26 19:14:55;;;;;;;5.63;3.10;;;23.00;75.20;;;;;;10458237;28;20116;-83
2022/06/26 19:19:56;;;;;;;5.90;3.40;;;22.90;76.40;;;;;;10449703;28;20111;-86
2022/06/26 19:24:58;;;;;;;4.57;3.25;;;22.70;77.00;;;;;;10462298;28;20119;-83
2022/06/26 19:29:58;;;;;;;6.05;3.22;;;22.50;76.90;;;;;;10459260;28;20025;-84
2022/06/26 19:34:59;;;;;;;4.90;3.55;;;22.30;77.50;;;;;;10459151;28;20035;-85
2022/06/26 19:40:00;;;;;;;5.13;3.75;;;22.30;77.20;;;;;;10463298;28;20032;-88
2022/06/26 19:45:03;;;;;;;4.32;3.25;;;22.30;77.90;;;;;;10473483;28;20021;-85
2022/06/26 19:55:24;;;;;;;6.38;3.75;;;22.20;77.40;;;;;;10473286;28;20065;-83
2022/06/26 20:00:28;;;;;;;4.65;3.35;;;22.10;77.10;;;;;;10473397;28;20051;-84
2022/06/26 20:05:29;;;;;;;4.80;3.63;;;22.10;77.80;;;;;;10466636;28;20586;-84
2022/06/26 20:10:30;;;;;;;6.20;3.92;;;22.00;77.50;;;;;;10467906;28;20025;-84
2022/06/26 20:15:33;;;;;;;4.35;3.38;;;22.00;77.40;;;;;;10469915;28;20029;-84
2022/06/26 20:20:34;;;;;;;8.18;3.90;;;22.10;76.60;;;;;;10474486;28;20032;-85
2022/06/26 20:25:36;;;;;;;6.00;3.97;;;22.20;76.70;;;;;;10481299;28;20506;-84
2022/06/26 20:30:37;;;;;;;5.13;4.15;;;22.20;76.30;;;;;;10469507;28;20114;-83
2022/06/26 20:35:41;;;;;;;7.95;4.32;;;22.20;75.70;;;;;;10481266;28;20037;-84
2022/06/26 20:40:42;;;;;;;6.00;4.03;;;22.20;77.00;;;;;;10465582;28;20032;-84
2022/06/26 20:45:43;;;;;;;9.05;4.32;;;22.10;77.20;;;;;;10477680;28;20348;-83
2022/06/26 20:50:44;;;;;;;7.35;4.28;;;21.90;78.40;;;;;;10466924;28;20384;-85
2022/06/26 20:55:44;;;;;;;5.78;4.35;;;21.80;78.20;;;;;;10473152;28;20488;-86
2022/06/26 21:00:45;;;;;;;6.95;4.57;;;21.70;78.30;;;;;;10445102;22;20083;-84
2022/06/26 21:05:46;;;;;;;8.95;4.40;;;21.60;78.50;;;;;;10388636;28;20555;-85
2022/06/26 21:10:47;;;;;;;6.00;4.18;;;21.60;78.80;;;;;;10389232;28;20129;-85
2022/06/26 21:15:48;;;;;;;6.82;4.35;;;21.50;78.30;;;;;;10407207;28;20061;-84
2022/06/26 21:20:49;;;;;;;6.70;4.35;;;21.50;79.00;;;;;;10403498;28;20138;-83
2022/06/26 21:25:49;;;;;;;9.18;4.20;;;21.50;79.50;;;;;;10407810;28;20033;-84
2022/06/26 21:30:51;;;;;;;7.82;3.97;;;21.30;80.20;;;;;;10403859;28;20108;-83
2022/06/26 21:35:51;;;;;;;5.63;4.10;;;21.10;80.70;;;;;;10404794;28;20072;-84
2022/06/26 21:40:52;;;;;;;5.40;4.10;;;20.90;81.20;;;;;;10406143;28;20473;-83
2022/06/26 21:45:53;;;;;;;7.50;4.65;;;20.80;82.00;;;;;;10405049;28;20025;-84
2022/06/26 21:50:54;;;;;;;5.63;4.47;;;20.60;82.50;;;;;;10406626;28;20054;-83
2022/06/26 21:55:54;;;;;;;8.40;4.90;;;20.40;82.80;;;;;;10403634;28;20544;-83
2022/06/26 22:00:55;;;;;;;7.20;4.47;;;20.30;83.60;;;;;;10405007;28;20207;-83
2022/06/26 22:05:55;;;;;;;7.90;4.35;;;20.10;84.30;;;;;;10403618;28;20535;-82
2022/06/26 22:10:56;;;;;;;6.30;4.50;;;20.00;84.70;;;;;;10402547;28;20029;-82
2022/06/26 22:15:57;;;;;;;9.05;5.32;;;20.00;84.90;;;;;;10404326;28;20052;-81
2022/06/26 22:20:58;;;;;;;6.70;4.38;;;20.00;84.80;;;;;;10402107;28;20030;-83
2022/06/26 22:31:18;;;;;;;12.70;4.95;;;20.00;85.60;;;;;;10394637;28;20031;-84
2022/06/26 22:36:19;;;;;;;5.05;4.13;;;19.90;86.40;;;;;;10450698;22;20060;-83
2022/06/26 22:41:20;;;;;;;5.50;4.22;;;19.80;86.60;;;;;;10445386;28;20044;-83
2022/06/26 22:46:22;;;;;;;6.22;4.10;;;19.80;87.30;;;;;;10441233;28;20025;-82
2022/06/26 22:51:22;;;;;;;6.68;4.43;;;19.70;87.90;;;;;;10438649;28;20608;-84
2022/06/26 22:56:23;;;;;;;5.65;3.97;;;19.50;89.00;;;;;;10442338;28;20099;-83
2022/06/26 23:01:24;;;;;;;6.93;4.07;;;19.40;89.80;;;;;;10440289;28;20029;-84
2022/06/26 23:06:24;;;;;;;14.40;4.78;;;19.30;90.20;;;;;;10440976;28;20036;-83
2022/06/26 23:11:25;;;;;;;5.53;4.15;;;19.30;90.50;;;;;;10441845;28;20047;-83
2022/06/26 23:16:25;;;;;;;5.97;3.83;;;19.20;90.80;;;;;;10442147;28;20396;-82
2022/06/26 23:21:26;;;;;;;5.90;3.97;;;19.20;91.20;;;;;;10440292;28;20111;-83
2022/06/26 23:26:27;;;;;;;7.00;4.28;;;19.10;91.80;;;;;;10440337;28;20025;-83
2022/06/26 23:31:28;;;;;;;7.47;4.13;;;19.10;92.40;;;;;;10442225;28;20044;-83
2022/06/26 23:36:28;;;;;;;6.25;4.43;;;19.00;93.10;;;;;;10442594;28;20144;-84
2022/06/26 23:41:29;;;;;;;9.23;4.25;;;19.00;93.90;;;;;;10443624;28;20025;-82
2022/06/26 23:46:30;;;;;;;5.45;4.20;;;18.90;94.90;;;;;;10441648;28;20044;-82
2022/06/26 23:51:30;;;;;;;6.45;4.85;;;18.90;95.80;;;;;;10443797;28;20167;-81
2022/06/26 23:56:31;;;;;;;6.65;4.55;;;18.90;97.50;;;;;;10442057;28;20076;-83
